Time;durP1;ratioP1;P1;durP2;ratioP2;P2;SDS_P1;SDS_P2;PMS_P1;PMS_P2;Temp;Humidity;BMP_temperature;BMP_pressure;BME280_temperature;BME280_humidity;BME280_pressure;Samples;Min_cycle;Max_cycle;Signal;HPM_P1;HPM_P2
2021/03/19 00:00:58;;;;;;;9.53;4.03;;;;;;;;;;5092750;28;20565;-57
2021/03/19 00:03:23;;;;;;;8.23;4.13;;;;;;;;;;5093334;28;20032;-57
2021/03/19 00:05:49;;;;;;;5.03;3.17;;;;;;;;;;5074115;28;20044;-60
2021/03/19 00:08:14;;;;;;;13.40;4.13;;;;;;;;;;5094526;28;20032;-56
2021/03/19 00:10:40;;;;;;;5.07;3.17;;;;;;;;;;5093563;28;20119;-59
2021/03/19 00:13:08;;;;;;;7.33;3.07;;;;;;;;;;5074184;28;20024;-57
2021/03/19 00:15:34;;;;;;;8.88;3.55;;;;;;;;;;5075024;28;20024;-57
2021/03/19 00:17:59;;;;;;;6.27;4.20;;;;;;;;;;5091911;28;20047;-57
2021/03/19 00:20:25;;;;;;;15.18;6.18;;;;;;;;;;5074599;28;20028;-57
2021/03/19 00:22:51;;;;;;;7.97;4.20;;;;;;;;;;5092498;28;20048;-56
2021/03/19 00:25:16;;;;;;;8.97;3.67;;;;;;;;;;5093066;28;20028;-56
2021/03/19 00:27:41;;;;;;;6.33;3.73;;;;;;;;;;5092937;28;20034;-57
2021/03/19 00:30:09;;;;;;;12.53;4.10;;;;;;;;;;5091951;28;20028;-57
2021/03/19 00:32:34;;;;;;;8.45;3.63;;;;;;;;;;5074712;28;20032;-56
2021/03/19 00:35:00;;;;;;;6.93;3.85;;;;;;;;;;5091899;28;20107;-57
2021/03/19 00:37:25;;;;;;;9.50;3.73;;;;;;;;;;5092866;28;20043;-56
2021/03/19 00:39:50;;;;;;;10.70;4.10;;;;;;;;;;5073831;28;20024;-56
2021/03/19 00:42:16;;;;;;;11.93;3.97;;;;;;;;;;5093086;28;20138;-56
2021/03/19 00:44:41;;;;;;;13.13;4.67;;;;;;;;;;5074245;28;20032;-56
2021/03/19 00:47:06;;;;;;;10.90;4.60;;;;;;;;;;5091938;28;20144;-56
2021/03/19 00:49:32;;;;;;;6.70;4.13;;;;;;;;;;5057277;28;20031;-56
2021/03/19 00:51:57;;;;;;;18.23;6.07;;;;;;;;;;5091893;28;20036;-55
2021/03/19 00:54:23;;;;;;;7.10;4.17;;;;;;;;;;5074322;28;20109;-56
2021/03/19 00:56:48;;;;;;;13.10;4.93;;;;;;;;;;5092189;28;20028;-55
2021/03/19 00:59:13;;;;;;;14.00;5.27;;;;;;;;;;5073778;28;20388;-56
2021/03/19 01:01:39;;;;;;;17.07;7.30;;;;;;;;;;5092362;28;20182;-56
2021/03/19 01:04:04;;;;;;;8.53;4.70;;;;;;;;;;5091647;28;20016;-56
2021/03/19 01:06:29;;;;;;;12.63;5.47;;;;;;;;;;5061968;28;20053;-55
2021/03/19 01:08:55;;;;;;;11.50;5.03;;;;;;;;;;5051522;28;20032;-56
2021/03/19 01:11:20;;;;;;;10.70;5.33;;;;;;;;;;5050769;28;20033;-56
2021/03/19 01:13:46;;;;;;;8.73;5.37;;;;;;;;;;5050410;28;20648;-57
2021/03/19 01:16:11;;;;;;;11.67;5.27;;;;;;;;;;5051412;28;20036;-56
2021/03/19 01:18:36;;;;;;;12.50;5.50;;;;;;;;;;5051156;28;20024;-57
2021/03/19 01:21:02;;;;;;;9.90;5.67;;;;;;;;;;5049720;28;20449;-58
2021/03/19 01:23:27;;;;;;;9.53;4.87;;;;;;;;;;5050479;28;20417;-57
2021/03/19 01:25:54;;;;;;;9.70;5.37;;;;;;;;;;5051353;28;20769;-58
2021/03/19 01:28:20;;;;;;;10.23;4.45;;;;;;;;;;5051858;28;20045;-57
2021/03/19 01:30:45;;;;;;;11.00;6.87;;;;;;;;;;5050455;28;20053;-56
2021/03/19 01:33:11;;;;;;;8.60;5.25;;;;;;;;;;5050706;28;20357;-56
2021/03/19 01:35:38;;;;;;;9.33;5.17;;;;;;;;;;5051348;28;20534;-57
2021/03/19 01:38:05;;;;;;;11.50;5.53;;;;;;;;;;5049354;28;20373;-58
2021/03/19 01:40:33;;;;;;;8.10;5.05;;;;;;;;;;5051137;28;20108;-57
2021/03/19 01:42:59;;;;;;;14.98;5.88;;;;;;;;;;5050615;28;20161;-58
2021/03/19 01:45:59;;;;;;;11.20;5.47;;;;;;;;;;5050047;28;20521;-58
2021/03/19 01:48:43;;;;;;;11.40;5.57;;;;;;;;;;5051583;28;20029;-57
2021/03/19 01:51:28;;;;;;;11.90;5.65;;;;;;;;;;5046752;28;20124;-59
2021/03/19 01:54:11;;;;;;;15.10;5.90;;;;;;;;;;5049154;28;20028;-57
2021/03/19 01:56:55;;;;;;;9.60;5.90;;;;;;;;;;5049736;28;20068;-57
2021/03/19 01:59:39;;;;;;;11.73;6.60;;;;;;;;;;5049314;28;20029;-57
2021/03/19 02:02:23;;;;;;;11.73;6.40;;;;;;;;;;5051068;28;20071;-57
2021/03/19 02:05:07;;;;;;;11.70;6.30;;;;;;;;;;5048478;28;20514;-56
2021/03/19 02:07:51;;;;;;;9.93;5.45;;;;;;;;;;5074469;28;20052;-57
2021/03/19 02:10:35;;;;;;;15.45;6.43;;;;;;;;;;5089032;28;20244;-56
2021/03/19 02:13:19;;;;;;;13.68;6.00;;;;;;;;;;5089290;28;20052;-57
2021/03/19 02:16:03;;;;;;;13.60;6.57;;;;;;;;;;5090646;28;20016;-54
2021/03/19 02:18:47;;;;;;;12.55;5.82;;;;;;;;;;5069626;28;20368;-57
2021/03/19 02:21:31;;;;;;;15.55;6.65;;;;;;;;;;5087886;28;20036;-55
2021/03/19 02:24:15;;;;;;;17.15;6.47;;;;;;;;;;5071026;28;20028;-58
2021/03/19 02:26:59;;;;;;;15.35;7.28;;;;;;;;;;5089771;28;20134;-57
2021/03/19 02:29:43;;;;;;;18.50;7.00;;;;;;;;;;5089748;28;20032;-56
2021/03/19 02:32:08;;;;;;;16.02;7.97;;;;;;;;;;5087336;28;20046;-57
2021/03/19 02:34:37;;;;;;;15.33;6.80;;;;;;;;;;5090664;28;20020;-57
2021/03/19 02:37:02;;;;;;;24.17;9.45;;;;;;;;;;5071809;28;20099;-56
2021/03/19 02:39:28;;;;;;;15.13;7.50;;;;;;;;;;5055168;28;20536;-57
2021/03/19 02:41:53;;;;;;;15.53;7.40;;;;;;;;;;5090344;28;20032;-58
2021/03/19 02:44:18;;;;;;;16.60;7.57;;;;;;;;;;5090269;28;20059;-59
2021/03/19 02:46:44;;;;;;;19.07;7.57;;;;;;;;;;5072812;28;20070;-58
2021/03/19 02:49:09;;;;;;;11.43;6.93;;;;;;;;;;5090021;28;20494;-57
2021/03/19 02:51:35;;;;;;;12.40;6.50;;;;;;;;;;5072535;28;20525;-59
2021/03/19 02:54:00;;;;;;;13.93;7.23;;;;;;;;;;5072516;28;20035;-55
2021/03/19 02:56:25;;;;;;;18.20;7.00;;;;;;;;;;5071887;28;20073;-55
2021/03/19 02:58:51;;;;;;;18.53;8.70;;;;;;;;;;5072557;28;20047;-57
2021/03/19 03:01:16;;;;;;;14.67;7.00;;;;;;;;;;5089828;28;20050;-56
2021/03/19 03:03:41;;;;;;;20.07;7.87;;;;;;;;;;5072038;28;20483;-57
2021/03/19 03:06:07;;;;;;;15.80;7.80;;;;;;;;;;5089513;28;20511;-57
2021/03/19 03:08:33;;;;;;;15.57;6.63;;;;;;;;;;5087040;28;20044;-57
2021/03/19 03:10:59;;;;;;;23.87;9.20;;;;;;;;;;5055684;28;20442;-59
2021/03/19 03:13:24;;;;;;;16.58;7.97;;;;;;;;;;5089714;28;20456;-58
2021/03/19 03:15:50;;;;;;;19.97;8.37;;;;;;;;;;5071916;28;20024;-57
2021/03/19 03:18:15;;;;;;;17.27;7.90;;;;;;;;;;5089654;28;20048;-57
2021/03/19 03:20:49;;;;;;;21.23;8.13;;;;;;;;;;5071572;28;20036;-57
2021/03/19 03:23:17;;;;;;;16.33;7.90;;;;;;;;;;5069137;28;20031;-59
2021/03/19 03:25:42;;;;;;;17.95;8.60;;;;;;;;;;5090162;28;20024;-57
2021/03/19 03:28:09;;;;;;;20.83;8.25;;;;;;;;;;5089706;28;20028;-55
2021/03/19 03:30:36;;;;;;;15.30;7.57;;;;;;;;;;5071971;28;20468;-58
2021/03/19 03:33:02;;;;;;;13.73;7.25;;;;;;;;;;5089909;28;20024;-57
2021/03/19 03:35:28;;;;;;;17.58;8.82;;;;;;;;;;5089440;28;20055;-57
2021/03/19 03:37:53;;;;;;;20.57;7.13;;;;;;;;;;5071481;28;20036;-58
2021/03/19 03:40:21;;;;;;;13.33;7.47;;;;;;;;;;5086566;28;20016;-58
2021/03/19 03:42:47;;;;;;;15.90;7.70;;;;;;;;;;5071733;28;20287;-57
2021/03/19 03:45:12;;;;;;;14.37;8.00;;;;;;;;;;5071135;28;20036;-57
2021/03/19 03:47:38;;;;;;;13.27;6.90;;;;;;;;;;5089993;28;20045;-57
2021/03/19 03:50:11;;;;;;;14.27;7.47;;;;;;;;;;5089641;28;20032;-59
2021/03/19 03:52:36;;;;;;;13.70;7.13;;;;;;;;;;5071704;28;20031;-59
2021/03/19 03:55:04;;;;;;;17.37;7.33;;;;;;;;;;5075393;28;20345;-58
2021/03/19 03:57:29;;;;;;;17.50;6.90;;;;;;;;;;5090203;28;20024;-57
2021/03/19 03:59:54;;;;;;;17.87;7.37;;;;;;;;;;5075141;28;20031;-58
2021/03/19 04:02:21;;;;;;;12.40;5.83;;;;;;;;;;5092595;28;20071;-56
2021/03/19 04:04:48;;;;;;;12.57;6.78;;;;;;;;;;5092927;28;20144;-55
2021/03/19 04:07:13;;;;;;;;;;;;;;;;;;5092862;28;20047;-58
2021/03/19 04:09:39;;;;;;;12.87;6.07;;;;;;;;;;5093282;28;19908;-58
2021/03/19 04:12:05;;;;;;;20.97;7.20;;;;;;;;;;5074905;28;20032;-57
2021/03/19 04:14:30;;;;;;;22.67;7.60;;;;;;;;;;5092314;28;20031;-57
2021/03/19 04:16:58;;;;;;;27.17;6.80;;;;;;;;;;5092695;28;20043;-57
2021/03/19 04:19:23;;;;;;;21.25;6.93;;;;;;;;;;5092338;28;20107;-57
2021/03/19 04:21:48;;;;;;;16.60;7.10;;;;;;;;;;5093061;28;20180;-56
2021/03/19 04:24:14;;;;;;;18.83;7.97;;;;;;;;;;5092175;28;20103;-57
2021/03/19 04:26:39;;;;;;;17.17;6.70;;;;;;;;;;5074681;28;20035;-56
2021/03/19 04:29:04;;;;;;;15.37;5.57;;;;;;;;;;5092718;28;20355;-57
2021/03/19 04:31:30;;;;;;;22.80;8.37;;;;;;;;;;5092177;28;20047;-57
2021/03/19 04:33:55;;;;;;;17.43;8.13;;;;;;;;;;5074651;28;20031;-57
2021/03/19 04:36:26;;;;;;;21.80;8.43;;;;;;;;;;5091734;28;20541;-56
2021/03/19 04:38:53;;;;;;;13.88;6.90;;;;;;;;;;5090486;28;20452;-55
2021/03/19 04:41:18;;;;;;;18.80;7.88;;;;;;;;;;5075139;28;20036;-61
2021/03/19 04:43:44;;;;;;;17.60;7.93;;;;;;;;;;5093611;28;20442;-58
2021/03/19 04:46:09;;;;;;;15.87;7.13;;;;;;;;;;5075238;28;20059;-58
2021/03/19 04:48:36;;;;;;;20.53;8.23;;;;;;;;;;5092877;28;20078;-57
2021/03/19 04:51:01;;;;;;;18.48;7.30;;;;;;;;;;5092632;28;20492;-56
2021/03/19 04:53:26;;;;;;;23.23;7.77;;;;;;;;;;5092768;28;20027;-56
2021/03/19 04:55:52;;;;;;;20.67;7.87;;;;;;;;;;5074891;28;20333;-57
2021/03/19 04:58:17;;;;;;;15.33;7.47;;;;;;;;;;5074267;28;20128;-57
2021/03/19 05:00:43;;;;;;;18.73;8.17;;;;;;;;;;5092906;28;20031;-56
2021/03/19 05:03:08;;;;;;;17.02;6.70;;;;;;;;;;5092682;28;20360;-57
2021/03/19 05:05:34;;;;;;;15.17;6.63;;;;;;;;;;5074189;28;20028;-56
2021/03/19 05:08:00;;;;;;;19.80;7.73;;;;;;;;;;5075095;28;20044;-57
2021/03/19 05:10:27;;;;;;;17.55;7.78;;;;;;;;;;5074686;28;20038;-58
2021/03/19 05:12:53;;;;;;;17.70;7.07;;;;;;;;;;5074726;28;20082;-57
2021/03/19 05:15:19;;;;;;;16.45;7.20;;;;;;;;;;5092355;28;20032;-57
2021/03/19 05:17:44;;;;;;;22.60;7.00;;;;;;;;;;5074688;28;20103;-56
2021/03/19 05:20:11;;;;;;;19.27;7.63;;;;;;;;;;5093197;28;20123;-57
2021/03/19 05:22:36;;;;;;;;;;;;;;;;;;5074806;28;20085;-57
2021/03/19 05:25:02;;;;;;;20.30;6.60;;;;;;;;;;5093244;28;20291;-56
2021/03/19 05:27:28;;;;;;;19.95;7.13;;;;;;;;;;5092607;28;20122;-57
2021/03/19 05:29:55;;;;;;;18.63;7.53;;;;;;;;;;5074796;28;20119;-56
2021/03/19 05:32:21;;;;;;;19.55;7.28;;;;;;;;;;5092486;28;20020;-57
2021/03/19 05:34:47;;;;;;;23.02;7.50;;;;;;;;;;5092910;28;20028;-59
2021/03/19 05:37:12;;;;;;;19.20;8.20;;;;;;;;;;5092946;28;20071;-58
2021/03/19 05:39:38;;;;;;;16.80;7.43;;;;;;;;;;5092255;28;20071;-56
2021/03/19 05:42:08;;;;;;;14.40;7.03;;;;;;;;;;5074665;28;20032;-58
2021/03/19 05:44:34;;;;;;;18.63;6.72;;;;;;;;;;5092345;28;20032;-57
2021/03/19 05:47:00;;;;;;;17.17;6.43;;;;;;;;;;5074743;28;20096;-57
2021/03/19 05:49:26;;;;;;;;;;;;;;;;;;5092298;28;20027;-57
2021/03/19 05:51:52;;;;;;;14.53;7.23;;;;;;;;;;5092740;28;20275;-57
2021/03/19 05:54:25;;;;;;;19.55;6.47;;;;;;;;;;5092618;28;20419;-59
2021/03/19 05:56:59;;;;;;;18.20;6.93;;;;;;;;;;5092663;28;20086;-57
2021/03/19 05:59:25;;;;;;;18.73;6.72;;;;;;;;;;5092001;28;20108;-58
2021/03/19 06:01:50;;;;;;;11.93;6.93;;;;;;;;;;5092164;28;20086;-57
2021/03/19 06:04:20;;;;;;;19.80;7.20;;;;;;;;;;5074389;28;20298;-55
2021/03/19 06:06:49;;;;;;;18.95;6.90;;;;;;;;;;5057036;28;20072;-57
2021/03/19 06:09:22;;;;;;;20.05;6.65;;;;;;;;;;5092687;28;20051;-58
2021/03/19 06:11:49;;;;;;;16.48;8.00;;;;;;;;;;5073582;28;20031;-57
2021/03/19 06:14:15;;;;;;;15.15;6.70;;;;;;;;;;5092357;28;20028;-56
2021/03/19 06:16:40;;;;;;;;;;;;;;;;;;5091394;28;20074;-57
2021/03/19 06:19:25;;;;;;;18.17;7.83;;;;;;;;;;5092094;28;19950;-59
2021/03/19 06:22:00;;;;;;;39.88;7.28;;;;;;;;;;5091510;28;20086;-57
2021/03/19 06:24:27;;;;;;;17.63;8.15;;;;;;;;;;5073869;28;20063;-57
2021/03/19 06:26:53;;;;;;;15.70;6.63;;;;;;;;;;5092236;28;20036;-58
2021/03/19 06:29:21;;;;;;;14.07;6.28;;;;;;;;;;5092211;28;20464;-57
2021/03/19 06:32:13;;;;;;;20.65;6.53;;;;;;;;;;5091547;28;20032;-57
2021/03/19 06:34:59;;;;;;;13.68;6.95;;;;;;;;;;5042701;28;20097;-57
2021/03/19 06:37:30;;;;;;;17.33;6.90;;;;;;;;;;5091101;28;20040;-58
2021/03/19 06:39:57;;;;;;;13.43;6.32;;;;;;;;;;5091787;28;20028;-56
2021/03/19 06:42:22;;;;;;;19.73;6.50;;;;;;;;;;5091958;28;20019;-57
2021/03/19 06:45:02;;;;;;;24.27;8.90;;;;;;;;;;5073420;28;20024;-57
2021/03/19 06:47:42;;;;;;;15.02;6.35;;;;;;;;;;5091540;28;20499;-57
2021/03/19 06:50:30;;;;;;;16.08;6.40;;;;;;;;;;5091689;28;20530;-57
2021/03/19 06:53:14;;;;;;;20.92;7.88;;;;;;;;;;5091828;28;20059;-54
2021/03/19 06:55:44;;;;;;;27.58;8.82;;;;;;;;;;5090864;28;20032;-56
2021/03/19 06:58:10;;;;;;;17.10;6.82;;;;;;;;;;5070542;28;20032;-57
2021/03/19 07:00:44;;;;;;;18.87;6.87;;;;;;;;;;5088753;28;20520;-56
2021/03/19 07:03:09;;;;;;;24.77;8.60;;;;;;;;;;5090933;28;20028;-57
2021/03/19 07:05:53;;;;;;;21.10;6.10;;;;;;;;;;5073019;28;20042;-57
2021/03/19 07:08:30;;;;;;;14.27;6.60;;;;;;;;;;5091642;28;20072;-57
2021/03/19 07:11:14;;;;;;;17.02;6.05;;;;;;;;;;5072294;28;20016;-57
2021/03/19 07:13:46;;;;;;;16.88;6.68;;;;;;;;;;5087820;28;20115;-57
2021/03/19 07:16:14;;;;;;;12.20;6.57;;;;;;;;;;5091645;28;20471;-57
2021/03/19 07:18:58;;;;;;;21.15;7.78;;;;;;;;;;5090775;28;20042;-57
2021/03/19 07:21:32;;;;;;;18.92;6.63;;;;;;;;;;5091409;28;20032;-57
2021/03/19 07:24:30;;;;;;;20.08;6.13;;;;;;;;;;5072890;28;20040;-58
2021/03/19 07:27:10;;;;;;;18.17;6.50;;;;;;;;;;5046535;28;20117;-59
2021/03/19 07:29:36;;;;;;;10.38;5.68;;;;;;;;;;5093680;28;20025;-58
2021/03/19 07:32:01;;;;;;;17.03;6.20;;;;;;;;;;5094000;28;20031;-58
2021/03/19 07:34:45;;;;;;;17.37;6.83;;;;;;;;;;5094520;28;20040;-56
2021/03/19 07:37:14;;;;;;;14.80;5.85;;;;;;;;;;5099742;28;20468;-58
2021/03/19 07:39:57;;;;;;;14.85;7.47;;;;;;;;;;5094032;28;20051;-57
2021/03/19 07:42:40;;;;;;;28.20;7.20;;;;;;;;;;5094189;28;20131;-58
2021/03/19 07:45:20;;;;;;;27.60;6.70;;;;;;;;;;5092481;28;20046;-58
2021/03/19 07:48:00;;;;;;;18.25;7.25;;;;;;;;;;5091868;28;20034;-57
2021/03/19 07:50:31;;;;;;;15.00;6.20;;;;;;;;;;5073952;28;20107;-58
2021/03/19 07:53:00;;;;;;;16.23;6.90;;;;;;;;;;5072102;28;20161;-57
2021/03/19 07:55:45;;;;;;;18.83;5.82;;;;;;;;;;5075364;28;20438;-55
2021/03/19 07:58:29;;;;;;;14.38;6.63;;;;;;;;;;5092329;28;20028;-57
2021/03/19 08:01:02;;;;;;;14.40;5.75;;;;;;;;;;5092659;28;20074;-56
2021/03/19 08:03:31;;;;;;;14.77;6.60;;;;;;;;;;5074827;28;20476;-57
2021/03/19 08:06:00;;;;;;;10.77;6.20;;;;;;;;;;5090105;28;20040;-57
2021/03/19 08:08:28;;;;;;;12.57;4.80;;;;;;;;;;5074592;28;20093;-56
2021/03/19 08:11:01;;;;;;;10.55;5.05;;;;;;;;;;5074053;28;20024;-57
2021/03/19 08:13:30;;;;;;;12.60;4.70;;;;;;;;;;5092912;28;20035;-57
2021/03/19 08:16:17;;;;;;;16.20;6.15;;;;;;;;;;5092176;28;20139;-58
2021/03/19 08:18:43;;;;;;;;;;;;;;;;;;5090496;28;20028;-58
2021/03/19 08:21:19;;;;;;;11.33;4.20;;;;;;;;;;5074419;28;19915;-56
2021/03/19 08:23:52;;;;;;;8.32;3.50;;;;;;;;;;5072038;28;20036;-55
2021/03/19 08:26:21;;;;;;;12.13;3.33;;;;;;;;;;5092620;28;20043;-57
2021/03/19 08:28:52;;;;;;;10.82;2.80;;;;;;;;;;5092161;28;20080;-57
2021/03/19 08:31:25;;;;;;;4.63;1.80;;;;;;;;;;5074390;28;20032;-57
2021/03/19 08:34:09;;;;;;;6.68;2.45;;;;;;;;;;5092446;28;20521;-57
2021/03/19 08:36:44;;;;;;;6.28;2.22;;;;;;;;;;5068404;28;20559;-57
2021/03/19 08:39:12;;;;;;;12.05;3.55;;;;;;;;;;5090481;28;20037;-58
2021/03/19 08:41:41;;;;;;;6.95;2.55;;;;;;;;;;5074111;28;20047;-57
2021/03/19 08:44:11;;;;;;;20.25;3.65;;;;;;;;;;5074112;28;20024;-61
2021/03/19 08:46:42;;;;;;;8.63;2.92;;;;;;;;;;5092447;28;20487;-57
2021/03/19 08:49:31;;;;;;;3.80;1.95;;;;;;;;;;5074291;28;20120;-57
2021/03/19 08:51:57;;;;;;;8.13;2.38;;;;;;;;;;5077222;28;20063;-55
2021/03/19 08:54:31;;;;;;;6.25;2.22;;;;;;;;;;5092347;28;20360;-58
2021/03/19 08:57:06;;;;;;;3.97;1.98;;;;;;;;;;5091793;28;20028;-57
2021/03/19 08:59:31;;;;;;;4.93;2.35;;;;;;;;;;5072707;28;20020;-57
2021/03/19 09:01:58;;;;;;;4.57;2.45;;;;;;;;;;5073382;28;20348;-57
2021/03/19 09:04:46;;;;;;;8.02;2.50;;;;;;;;;;5092398;28;20073;-57
2021/03/19 09:07:18;;;;;;;9.38;3.20;;;;;;;;;;5046703;28;20071;-59
2021/03/19 09:09:44;;;;;;;3.65;1.73;;;;;;;;;;5089786;28;20131;-58
2021/03/19 09:12:10;;;;;;;3.75;1.85;;;;;;;;;;5091847;28;20039;-57
2021/03/19 09:14:35;;;;;;;;;;;;;;;;;;5074404;28;20032;-58
2021/03/19 09:17:01;;;;;;;7.70;3.07;;;;;;;;;;5091704;28;19957;-57
2021/03/19 09:19:33;;;;;;;6.37;2.10;;;;;;;;;;5093226;28;20057;-57
2021/03/19 09:22:16;;;;;;;7.70;2.87;;;;;;;;;;5090340;28;20036;-59
2021/03/19 09:25:02;;;;;;;5.90;1.83;;;;;;;;;;5091776;28;20309;-57
2021/03/19 09:27:30;;;;;;;3.80;1.90;;;;;;;;;;5091749;28;20244;-59
2021/03/19 09:30:06;;;;;;;4.20;1.37;;;;;;;;;;5089630;28;20240;-58
2021/03/19 09:32:43;;;;;;;13.13;2.30;;;;;;;;;;5057490;28;20624;-58
2021/03/19 09:35:26;;;;;;;2.70;1.77;;;;;;;;;;5092230;28;20289;-58
2021/03/19 09:37:53;;;;;;;3.77;1.90;;;;;;;;;;5073390;28;20376;-57
2021/03/19 09:40:37;;;;;;;6.50;2.47;;;;;;;;;;5092231;28;20039;-57
2021/03/19 09:43:02;;;;;;;5.20;1.43;;;;;;;;;;5090350;28;20073;-57
2021/03/19 09:45:29;;;;;;;4.87;2.33;;;;;;;;;;5092457;28;20048;-58
2021/03/19 09:48:11;;;;;;;5.57;2.50;;;;;;;;;;5089019;28;20261;-58
2021/03/19 09:50:46;;;;;;;5.33;1.80;;;;;;;;;;5071257;28;20089;-58
2021/03/19 09:53:23;;;;;;;3.77;2.23;;;;;;;;;;5073339;28;20019;-58
2021/03/19 09:55:48;;;;;;;;;;;;;;;;;;5092392;28;20028;-57
2021/03/19 09:58:13;;;;;;;4.40;1.77;;;;;;;;;;5091730;28;19911;-58
2021/03/19 10:00:45;;;;;;;5.13;2.13;;;;;;;;;;5073593;28;20483;-58
2021/03/19 10:03:11;;;;;;;6.47;2.53;;;;;;;;;;5091194;28;20046;-58
2021/03/19 10:05:38;;;;;;;4.78;1.70;;;;;;;;;;5091971;28;20028;-58
2021/03/19 10:08:04;;;;;;;4.50;1.57;;;;;;;;;;5070217;28;20044;-57
2021/03/19 10:10:29;;;;;;;5.63;1.95;;;;;;;;;;5056907;28;20472;-57
2021/03/19 10:13:04;;;;;;;2.83;1.48;;;;;;;;;;5072644;28;20038;-58
2021/03/19 10:15:29;;;;;;;4.03;1.60;;;;;;;;;;5069749;28;20035;-57
2021/03/19 10:17:56;;;;;;;6.22;2.10;;;;;;;;;;5076411;28;20038;-58
2021/03/19 10:20:26;;;;;;;4.53;1.93;;;;;;;;;;5059227;28;20043;-58
2021/03/19 10:22:53;;;;;;;4.80;1.73;;;;;;;;;;5054026;28;20098;-58
2021/03/19 10:25:18;;;;;;;5.57;2.20;;;;;;;;;;5087549;28;20032;-58
2021/03/19 10:27:45;;;;;;;4.60;1.60;;;;;;;;;;5089318;28;20115;-57
2021/03/19 10:30:15;;;;;;;6.23;1.80;;;;;;;;;;5090822;28;20032;-58
2021/03/19 10:32:40;;;;;;;7.40;1.80;;;;;;;;;;5091024;28;20439;-58
2021/03/19 10:35:17;;;;;;;3.13;1.58;;;;;;;;;;5089576;28;20103;-58
2021/03/19 10:37:47;;;;;;;4.63;1.80;;;;;;;;;;5070012;28;20019;-58
2021/03/19 10:40:26;;;;;;;4.63;2.20;;;;;;;;;;5069203;28;20383;-57
2021/03/19 10:42:57;;;;;;;6.73;2.47;;;;;;;;;;5091784;28;20140;-57
2021/03/19 10:45:26;;;;;;;5.10;2.80;;;;;;;;;;5090097;28;20028;-58
2021/03/19 10:48:06;;;;;;;13.00;2.33;;;;;;;;;;5069332;28;20168;-58
2021/03/19 10:50:34;;;;;;;5.97;1.80;;;;;;;;;;5070877;28;20082;-59
2021/03/19 10:53:03;;;;;;;4.50;2.03;;;;;;;;;;5091292;28;20071;-58
2021/03/19 10:55:31;;;;;;;4.03;2.40;;;;;;;;;;5091047;28;20055;-58
2021/03/19 10:58:15;;;;;;;5.43;2.10;;;;;;;;;;5091228;28;20035;-57
2021/03/19 11:00:41;;;;;;;5.83;2.77;;;;;;;;;;5070727;28;20028;-58
2021/03/19 11:03:07;;;;;;;5.05;2.17;;;;;;;;;;5094362;28;20077;-58
2021/03/19 11:05:53;;;;;;;6.07;2.22;;;;;;;;;;5097521;28;20052;-58
2021/03/19 11:08:18;;;;;;;4.17;1.77;;;;;;;;;;5061784;28;20212;-58
2021/03/19 11:10:43;;;;;;;6.45;2.03;;;;;;;;;;5058217;28;20143;-58
2021/03/19 11:13:10;;;;;;;2.63;1.70;;;;;;;;;;5057700;28;20032;-57
2021/03/19 11:15:35;;;;;;;3.77;1.87;;;;;;;;;;5058161;28;20024;-58
2021/03/19 11:18:01;;;;;;;;;;;;;;;;;;5057656;28;20037;-58
2021/03/19 11:20:33;;;;;;;2.73;1.50;;;;;;;;;;5058045;28;20403;-59
2021/03/19 11:22:59;;;;;;;6.90;2.00;;;;;;;;;;5057742;28;20075;-59
2021/03/19 11:25:24;;;;;;;;;;;;;;;;;;5057874;28;20029;-58
2021/03/19 11:27:50;;;;;;;4.75;1.27;;;;;;;;;;5057482;28;20295;-59
2021/03/19 11:30:24;;;;;;;3.58;1.48;;;;;;;;;;5055990;28;20041;-59
2021/03/19 11:32:59;;;;;;;5.88;2.28;;;;;;;;;;5056417;28;20174;-57
2021/03/19 11:35:24;;;;;;;4.07;1.20;;;;;;;;;;5056459;28;20029;-58
2021/03/19 11:37:50;;;;;;;2.60;1.38;;;;;;;;;;5057493;28;20032;-57
2021/03/19 11:40:15;;;;;;;3.95;1.40;;;;;;;;;;5056940;28;20454;-57
2021/03/19 11:42:42;;;;;;;2.72;1.25;;;;;;;;;;5057692;28;20134;-59
2021/03/19 11:45:10;;;;;;;5.28;1.92;;;;;;;;;;5054930;28;20471;-57
2021/03/19 11:47:59;;;;;;;1.77;1.10;;;;;;;;;;5056959;28;20554;-58
2021/03/19 11:50:31;;;;;;;2.28;1.02;;;;;;;;;;5048739;28;20056;-58
2021/03/19 11:53:01;;;;;;;4.05;1.67;;;;;;;;;;5057635;28;20036;-58
2021/03/19 11:55:28;;;;;;;3.65;1.60;;;;;;;;;;5057002;28;20142;-58
2021/03/19 11:57:54;;;;;;;3.83;1.80;;;;;;;;;;5056640;28;20078;-59
2021/03/19 12:00:21;;;;;;;4.50;1.50;;;;;;;;;;5056239;28;20028;-58
2021/03/19 12:02:49;;;;;;;4.07;1.17;;;;;;;;;;5046989;28;20037;-58
2021/03/19 12:05:15;;;;;;;2.85;1.67;;;;;;;;;;5053056;28;20480;-58
2021/03/19 12:07:40;;;;;;;2.28;1.23;;;;;;;;;;5073412;28;20052;-59
2021/03/19 12:10:07;;;;;;;2.83;1.10;;;;;;;;;;5095760;28;20391;-57
2021/03/19 12:12:32;;;;;;;4.88;1.73;;;;;;;;;;5097158;28;20145;-57
2021/03/19 12:14:59;;;;;;;3.20;1.30;;;;;;;;;;5093049;28;20118;-58
2021/03/19 12:17:25;;;;;;;2.47;1.25;;;;;;;;;;5091921;28;20052;-58
2021/03/19 12:19:50;;;;;;;4.13;1.80;;;;;;;;;;5092561;28;20480;-60
2021/03/19 12:22:17;;;;;;;3.55;1.38;;;;;;;;;;5092358;28;20111;-58
2021/03/19 12:24:42;;;;;;;3.35;1.35;;;;;;;;;;5093829;28;20032;-58
2021/03/19 12:27:07;;;;;;;2.30;1.23;;;;;;;;;;5094011;28;20075;-59
2021/03/19 12:29:33;;;;;;;3.63;1.60;;;;;;;;;;5075561;28;20064;-59
2021/03/19 12:31:59;;;;;;;2.50;1.38;;;;;;;;;;5072548;28;20032;-57
2021/03/19 12:34:24;;;;;;;3.53;1.67;;;;;;;;;;5090915;28;20103;-57
2021/03/19 12:36:50;;;;;;;3.05;1.20;;;;;;;;;;5093385;28;20030;-58
2021/03/19 12:39:18;;;;;;;3.20;1.23;;;;;;;;;;5092912;28;20421;-57
2021/03/19 12:41:43;;;;;;;2.28;1.25;;;;;;;;;;5093338;28;20036;-61
2021/03/19 12:44:09;;;;;;;3.33;1.63;;;;;;;;;;5093574;28;20032;-58
2021/03/19 12:46:35;;;;;;;2.55;1.13;;;;;;;;;;5092851;28;20036;-57
2021/03/19 12:49:01;;;;;;;6.65;1.50;;;;;;;;;;5091282;28;20031;-58
2021/03/19 12:51:26;;;;;;;2.80;1.25;;;;;;;;;;5092868;28;20040;-59
2021/03/19 12:53:51;;;;;;;2.03;1.08;;;;;;;;;;5093678;28;20126;-57
2021/03/19 12:56:17;;;;;;;3.50;1.35;;;;;;;;;;5092460;28;20048;-58
2021/03/19 12:58:43;;;;;;;4.70;1.77;;;;;;;;;;5091873;28;20024;-58
2021/03/19 13:01:08;;;;;;;4.97;2.22;;;;;;;;;;5092692;28;20032;-58
2021/03/19 13:03:34;;;;;;;9.50;5.10;;;;;;;;;;5090456;28;20467;-58
2021/03/19 13:05:59;;;;;;;3.22;1.50;;;;;;;;;;5093528;28;20034;-58
2021/03/19 13:08:24;;;;;;;4.93;1.40;;;;;;;;;;5093145;28;20114;-57
2021/03/19 13:10:50;;;;;;;7.70;4.25;;;;;;;;;;5094356;28;20119;-59
2021/03/19 13:13:16;;;;;;;4.63;1.95;;;;;;;;;;5094729;28;20035;-56
2021/03/19 13:15:44;;;;;;;4.65;1.38;;;;;;;;;;5093891;28;20211;-57
2021/03/19 13:18:09;;;;;;;6.05;2.33;;;;;;;;;;5093267;28;20127;-57
2021/03/19 13:20:35;;;;;;;3.88;1.50;;;;;;;;;;5092271;28;20444;-58
2021/03/19 13:23:01;;;;;;;3.15;1.48;;;;;;;;;;5093229;28;20016;-58
2021/03/19 13:25:29;;;;;;;3.08;1.98;;;;;;;;;;5086134;28;20154;-59
2021/03/19 13:27:55;;;;;;;3.90;1.98;;;;;;;;;;5073083;28;20040;-58
2021/03/19 13:30:21;;;;;;;2.70;1.50;;;;;;;;;;5072946;28;20032;-57
2021/03/19 13:32:47;;;;;;;4.68;1.40;;;;;;;;;;5070382;28;20032;-57
2021/03/19 13:35:33;;;;;;;5.13;2.10;;;;;;;;;;5071360;28;20062;-58
2021/03/19 13:38:00;;;;;;;3.65;1.42;;;;;;;;;;5072024;28;20076;-55
2021/03/19 13:40:26;;;;;;;5.38;2.28;;;;;;;;;;5071457;28;20119;-57
2021/03/19 13:42:52;;;;;;;1.77;1.00;;;;;;;;;;5072442;28;20103;-55
2021/03/19 13:45:18;;;;;;;2.78;1.42;;;;;;;;;;5070942;28;20392;-58
2021/03/19 13:47:43;;;;;;;2.60;1.65;;;;;;;;;;5069556;28;20448;-56
2021/03/19 13:50:09;;;;;;;2.63;1.33;;;;;;;;;;5071925;28;20115;-58
2021/03/19 13:52:35;;;;;;;1.92;1.15;;;;;;;;;;5071410;28;20391;-57
2021/03/19 13:55:00;;;;;;;3.75;1.75;;;;;;;;;;5070716;28;20036;-60
2021/03/19 13:57:26;;;;;;;4.65;2.33;;;;;;;;;;5069229;28;20403;-55
2021/03/19 13:59:52;;;;;;;3.67;1.33;;;;;;;;;;5071151;28;20500;-56
2021/03/19 14:02:17;;;;;;;1.60;0.98;;;;;;;;;;5073196;28;20107;-57
2021/03/19 14:04:42;;;;;;;4.22;1.60;;;;;;;;;;5069311;28;20036;-58
2021/03/19 14:07:08;;;;;;;1.63;0.90;;;;;;;;;;5072735;28;20063;-57
2021/03/19 14:09:33;;;;;;;2.47;0.93;;;;;;;;;;5072177;28;20119;-58
2021/03/19 14:11:59;;;;;;;1.60;1.02;;;;;;;;;;5073234;28;20129;-58
2021/03/19 14:14:24;;;;;;;2.38;0.90;;;;;;;;;;5091309;28;20076;-58
2021/03/19 14:16:50;;;;;;;1.85;0.93;;;;;;;;;;5073566;28;20059;-61
2021/03/19 14:19:16;;;;;;;2.67;1.45;;;;;;;;;;5092203;28;20401;-57
2021/03/19 14:21:42;;;;;;;3.47;1.83;;;;;;;;;;5090665;28;20028;-58
2021/03/19 14:24:07;;;;;;;2.72;1.73;;;;;;;;;;5090375;28;20123;-58
2021/03/19 14:26:33;;;;;;;2.15;1.00;;;;;;;;;;5090536;28;20050;-58
2021/03/19 14:28:58;;;;;;;1.52;0.80;;;;;;;;;;5090915;28;20548;-58
2021/03/19 14:31:25;;;;;;;6.55;2.08;;;;;;;;;;5090513;28;20050;-56
2021/03/19 14:33:51;;;;;;;3.92;1.48;;;;;;;;;;5066192;28;20761;-56
2021/03/19 14:36:16;;;;;;;;;;;;;;;;;;5085534;28;20023;-56
2021/03/19 14:38:42;;;;;;;5.07;1.90;;;;;;;;;;5072851;28;20368;-57
2021/03/19 14:41:07;;;;;;;;;;;;;;;;;;5092011;28;20040;-57
2021/03/19 14:43:33;;;;;;;8.63;2.83;;;;;;;;;;5088010;28;20312;-56
2021/03/19 14:45:58;;;;;;;4.75;2.25;;;;;;;;;;5086972;28;20038;-55
2021/03/19 14:48:28;;;;;;;5.93;2.22;;;;;;;;;;5109440;28;20024;-58
2021/03/19 14:50:54;;;;;;;3.33;1.30;;;;;;;;;;5097755;28;20031;-57
2021/03/19 14:53:19;;;;;;;;;;;;;;;;;;5080765;28;20031;-56